Urb Gran Vista I, Puerto Rico
Current Conditions -  °F | °C
As of 1:56 PM on Friday 28 Nov 2014 (Local Time) from TJSJ Reporting Station
Few Clouds Few Clouds  
Wind Chill: 84°   Ceiling: Unl
Heat Index: 90°   Visibility: 10mi
Dew Point: 73°   Wind: 14mph
Humidity: 69%   Direction: 50°NE
Pressure: 29.91"   Gusts: NA
Location:  18.2551°N, 65.9776°W
Report Text: TJSJ 281756Z 05012KT 10SM FEW034 29/23 A2991 RMK AO2 SLP127 T02890228 10294 20244 58025
Loading
Personal Weather Stations






























Interactive Weather Map New forecast layout! Learn more

10-Day Weather Forecast

Advertisements
Track Severe Weather on mobile